Time;durP1;ratioP1;P1;durP2;ratioP2;P2;SDS_P1;SDS_P2;PMS_P1;PMS_P2;Temp;Humidity;BMP_temperature;BMP_pressure;BME280_temperature;BME280_humidity;BME280_pressure;Samples;Min_cycle;Max_cycle;Signal;HPM_P1;HPM_P2
2023/12/28 00:01:48;;;;;;;1.60;1.50;;;;;;;5.29;100.00;98172.88;5097397;28;20200;-72
2023/12/28 00:04:15;;;;;;;2.93;1.90;;;;;;;5.38;100.00;98166.53;5097278;28;20208;-74
2023/12/28 00:06:41;;;;;;;2.10;1.90;;;;;;;5.41;100.00;98171.41;5096859;28;20594;-73
2023/12/28 00:09:09;;;;;;;1.93;1.50;;;;;;;5.63;97.59;98179.22;5096816;28;20564;-74
2023/12/28 00:11:36;;;;;;;1.93;1.40;;;;;;;6.07;88.87;98166.72;5097250;28;20200;-74
2023/12/28 00:14:02;;;;;;;2.17;1.50;;;;;;;6.37;87.83;98178.81;5097638;28;20290;-72
2023/12/28 00:16:30;;;;;;;1.60;1.50;;;;;;;7.57;74.82;98186.34;5097165;28;20226;-72
2023/12/28 00:18:56;;;;;;;1.87;1.33;;;;;;;7.87;63.58;98183.19;5096615;28;20226;-72
2023/12/28 00:21:23;;;;;;;1.60;1.50;;;;;;;7.93;61.06;98181.59;5097045;28;20207;-72
2023/12/28 00:23:49;;;;;;;1.73;1.47;;;;;;;8.00;59.26;98182.41;5096929;28;20208;-72
2023/12/28 00:26:21;;;;;;;1.50;1.40;;;;;;;8.21;57.94;98179.66;5096475;28;20227;-72
2023/12/28 00:28:48;;;;;;;1.67;1.37;;;;;;;8.18;58.02;98187.97;5096768;28;20189;-72
2023/12/28 00:31:15;;;;;;;2.87;1.20;;;;;;;8.03;57.90;98189.97;5096508;28;20685;-72
2023/12/28 00:33:43;;;;;;;1.97;1.40;;;;;;;7.89;60.84;98202.38;5096464;28;20290;-72
2023/12/28 00:36:09;;;;;;;1.30;1.20;;;;;;;7.79;59.51;98198.44;5096301;28;20207;-73
2023/12/28 00:38:36;;;;;;;1.70;1.50;;;;;;;7.87;59.58;98195.63;5096719;28;20265;-73
2023/12/28 00:41:02;;;;;;;1.47;1.20;;;;;;;8.20;56.57;98202.66;5096661;28;20231;-72
2023/12/28 00:43:29;;;;;;;1.30;1.20;;;;;;;8.06;58.09;98202.81;5096710;28;20199;-72
2023/12/28 00:45:55;;;;;;;2.70;1.40;;;;;;;7.84;60.31;98198.66;5096532;28;20216;-72
2023/12/28 00:48:21;;;;;;;1.50;1.40;;;;;;;7.57;61.61;98196.94;5096354;28;20208;-72
2023/12/28 00:50:48;;;;;;;1.30;1.20;;;;;;;7.34;63.78;98199.03;5096174;28;20281;-72
2023/12/28 00:53:15;;;;;;;1.83;1.40;;;;;;;7.07;68.59;98194.59;5096515;28;20208;-72
2023/12/28 00:55:41;;;;;;;1.67;1.47;;;;;;;6.80;75.25;98183.03;5095304;28;20258;-72
2023/12/28 00:58:07;;;;;;;1.23;1.13;;;;;;;6.68;72.71;98178.44;5096351;28;20565;-73
2023/12/28 01:00:34;;;;;;;2.90;1.40;;;;;;;6.90;67.96;98182.69;5096292;28;20226;-73
2023/12/28 01:03:00;;;;;;;2.00;1.40;;;;;;;6.75;71.20;98189.91;5096327;28;20567;-72
2023/12/28 01:05:28;;;;;;;1.43;1.33;;;;;;;6.70;69.89;98187.03;5095980;28;20689;-72
2023/12/28 01:07:54;;;;;;;1.50;1.00;;;;;;;6.93;65.29;98187.59;5096081;28;20226;-72
2023/12/28 01:10:22;;;;;;;1.43;1.20;;;;;;;6.98;64.88;98198.41;5096057;28;20232;-72
2023/12/28 01:12:48;;;;;;;1.50;1.30;;;;;;;7.05;64.04;98202.72;5096074;28;20294;-72
2023/12/28 01:15:15;;;;;;;1.67;1.37;;;;;;;7.38;62.35;98202.94;5095723;28;20737;-72
2023/12/28 01:17:41;;;;;;;1.23;1.13;;;;;;;7.51;62.41;98203.81;5096076;28;20299;-72
2023/12/28 01:20:08;;;;;;;1.50;1.40;;;;;;;7.38;61.97;98205.59;5095859;28;20230;-72
2023/12/28 01:22:34;;;;;;;2.17;1.37;;;;;;;7.28;62.75;98205.91;5095588;28;20736;-72
2023/12/28 01:25:00;;;;;;;1.50;1.33;;;;;;;7.30;63.21;98200.44;5095555;28;20218;-72
2023/12/28 01:27:27;;;;;;;1.50;1.37;;;;;;;7.31;61.18;98202.91;5095462;28;20216;-72
2023/12/28 01:29:54;;;;;;;1.73;1.00;;;;;;;7.47;60.60;98204.41;5095586;28;20228;-72
2023/12/28 01:32:20;;;;;;;1.37;1.27;;;;;;;7.51;60.31;98205.66;5095738;28;20204;-72
2023/12/28 01:34:46;;;;;;;1.30;1.20;;;;;;;7.22;64.41;98204.06;5095636;28;20200;-72
2023/12/28 01:37:13;;;;;;;4.10;1.33;;;;;;;7.10;64.66;98204.81;5095543;28;20204;-72
2023/12/28 01:39:39;;;;;;;1.77;1.40;;;;;;;7.07;65.87;98215.75;5095445;28;20230;-72
2023/12/28 01:42:06;;;;;;;1.80;1.13;;;;;;;7.09;64.31;98217.19;5095415;28;20210;-72
2023/12/28 01:44:32;;;;;;;1.60;1.30;;;;;;;7.04;64.66;98224.06;5095220;28;20214;-72
2023/12/28 01:46:59;;;;;;;1.23;1.10;;;;;;;7.28;62.36;98234.22;5095077;28;20554;-72
2023/12/28 01:49:26;;;;;;;2.73;1.50;;;;;;;7.60;59.62;98223.00;5094864;28;20691;-72
2023/12/28 01:51:53;;;;;;;1.47;1.37;;;;;;;7.69;59.87;98227.91;5095294;28;20200;-72
2023/12/28 01:54:19;;;;;;;2.70;1.30;;;;;;;7.53;61.20;98238.00;5095336;28;20238;-72
2023/12/28 01:56:46;;;;;;;1.50;1.40;;;;;;;7.55;61.02;98236.81;5077290;28;20199;-72
2023/12/28 01:59:12;;;;;;;3.10;1.40;;;;;;;7.72;59.47;98227.53;5095137;28;20232;-72
2023/12/28 02:01:39;;;;;;;1.37;1.27;;;;;;;7.58;59.91;98227.66;5094533;28;20210;-72
2023/12/28 02:04:07;;;;;;;1.27;1.17;;;;;;;7.74;59.06;98236.06;5095091;28;20206;-72
2023/12/28 02:06:33;;;;;;;1.83;1.40;;;;;;;7.68;59.75;98246.63;5094658;28;20227;-72
2023/12/28 02:08:59;;;;;;;2.13;1.43;;;;;;;7.82;58.99;98254.44;5094911;28;20295;-72
2023/12/28 02:11:26;;;;;;;1.77;1.40;;;;;;;7.69;59.18;98259.66;5095019;28;20231;-72
2023/12/28 02:13:52;;;;;;;1.23;1.03;;;;;;;7.67;60.07;98255.59;5094797;28;20206;-72
2023/12/28 02:16:34;;;;;;;2.10;1.30;;;;;;;7.78;59.07;98258.50;5094608;28;20671;-72
2023/12/28 02:19:11;;;;;;;1.60;1.50;;;;;;;7.74;60.16;98253.81;5094779;28;20199;-72
2023/12/28 02:21:37;;;;;;;2.87;1.40;;;;;;;7.61;60.33;98256.38;5094799;28;20200;-72
2023/12/28 02:24:04;;;;;;;1.60;1.50;;;;;;;7.48;61.55;98257.13;5094423;28;20207;-72
2023/12/28 02:26:30;;;;;;;2.00;1.20;;;;;;;7.21;64.37;98254.47;5094584;28;20208;-72
2023/12/28 02:28:57;;;;;;;2.10;1.40;;;;;;;7.04;67.04;98247.84;5094343;28;20211;-73
2023/12/28 02:31:33;;;;;;;1.90;1.27;;;;;;;6.92;65.02;98250.19;5094592;28;20200;-72
2023/12/28 02:34:14;;;;;;;1.40;1.30;;;;;;;6.79;68.07;98251.94;5094641;28;20194;-72
2023/12/28 02:36:42;;;;;;;1.47;1.33;;;;;;;6.84;67.67;98246.88;5078333;28;20188;-72
2023/12/28 02:39:10;;;;;;;1.77;1.30;;;;;;;6.74;66.90;98249.03;5094402;28;20224;-72
2023/12/28 02:41:37;;;;;;;1.37;1.23;;;;;;;6.59;71.88;98240.34;5094410;28;20203;-72
2023/12/28 02:44:04;;;;;;;1.43;1.33;;;;;;;6.87;66.10;98241.22;5076500;28;20210;-72
2023/12/28 02:46:30;;;;;;;1.87;1.60;;;;;;;7.13;62.68;98251.97;5094352;28;20211;-72
2023/12/28 02:48:57;;;;;;;1.57;1.47;;;;;;;6.92;66.39;98244.91;5093837;28;20211;-72
2023/12/28 02:51:23;;;;;;;2.00;1.30;;;;;;;6.83;68.88;98240.78;5094226;28;20203;-72
2023/12/28 02:53:50;;;;;;;1.40;1.30;;;;;;;6.64;74.66;98251.16;5094254;28;20203;-72
2023/12/28 02:56:16;;;;;;;1.83;1.43;;;;;;;6.58;69.79;98257.22;5094187;28;20208;-72
2023/12/28 02:58:42;;;;;;;1.53;1.43;;;;;;;6.58;68.68;98247.47;5094095;28;20196;-72
2023/12/28 03:01:09;;;;;;;2.03;1.60;;;;;;;6.72;67.58;98251.88;5094084;28;20204;-72
2023/12/28 03:03:35;;;;;;;2.17;1.40;;;;;;;6.74;69.50;98252.47;5094134;28;20212;-72
2023/12/28 03:06:01;;;;;;;1.37;1.27;;;;;;;6.53;71.30;98241.09;5093984;28;20203;-72
2023/12/28 03:08:28;;;;;;;2.00;1.40;;;;;;;6.57;69.13;98250.28;5093942;28;20230;-72
2023/12/28 03:10:55;;;;;;;1.50;1.30;;;;;;;6.60;69.33;98250.72;5093918;28;20299;-72
2023/12/28 03:13:21;;;;;;;1.67;1.30;;;;;;;6.58;70.51;98246.63;5094731;28;20207;-72
2023/12/28 03:15:48;;;;;;;2.10;1.20;;;;;;;6.60;69.88;98242.00;5093940;28;20210;-72
2023/12/28 03:18:14;;;;;;;1.43;1.10;;;;;;;6.87;65.23;98255.25;5093444;28;20218;-72
2023/12/28 03:20:40;;;;;;;1.93;1.40;;;;;;;6.87;65.66;98246.50;5093353;28;20713;-72
2023/12/28 03:23:07;;;;;;;1.40;1.20;;;;;;;6.90;65.57;98249.59;5093646;28;20203;-72
2023/12/28 03:25:33;;;;;;;2.57;1.50;;;;;;;7.00;64.69;98251.88;5093705;28;20224;-72
2023/12/28 03:27:59;;;;;;;1.90;1.17;;;;;;;7.25;62.84;98247.81;5093598;28;20220;-72
2023/12/28 03:30:26;;;;;;;1.43;1.33;;;;;;;7.20;64.78;98250.22;5093084;28;20591;-72
2023/12/28 03:32:52;;;;;;;1.57;1.33;;;;;;;7.58;61.01;98256.75;5093252;28;20682;-72
2023/12/28 03:35:18;;;;;;;1.17;1.07;;;;;;;7.77;60.90;98258.69;5093560;28;20204;-72
2023/12/28 03:37:45;;;;;;;1.27;1.17;;;;;;;7.55;61.31;98251.88;5093583;28;20565;-72
2023/12/28 03:40:12;;;;;;;3.23;1.13;;;;;;;7.35;64.09;98257.03;5093338;28;20255;-72
2023/12/28 03:42:39;;;;;;;1.10;1.00;;;;;;;7.15;66.64;98248.13;5092958;28;20204;-72
2023/12/28 03:45:06;;;;;;;1.43;1.33;;;;;;;7.05;66.84;98242.38;5093209;28;20209;-72
2023/12/28 03:47:32;;;;;;;1.43;1.30;;;;;;;7.09;69.40;98237.50;5092867;28;20738;-72
2023/12/28 03:49:58;;;;;;;3.30;1.30;;;;;;;7.15;65.37;98240.19;5092967;28;20235;-72
2023/12/28 03:52:29;;;;;;;2.70;1.23;;;;;;;7.30;62.91;98233.00;5093166;28;20204;-72
2023/12/28 03:54:56;;;;;;;2.47;1.20;;;;;;;7.15;64.26;98231.47;5093109;28;20697;-72
2023/12/28 03:57:22;;;;;;;2.00;1.00;;;;;;;7.00;68.04;98226.28;5093344;28;20199;-72
2023/12/28 03:59:49;;;;;;;2.40;1.37;;;;;;;6.91;70.12;98229.25;5093259;28;20223;-72
2023/12/28 04:02:15;;;;;;;1.30;1.20;;;;;;;6.85;67.98;98222.09;5093032;28;20281;-72
2023/12/28 04:04:41;;;;;;;2.07;1.40;;;;;;;6.89;67.99;98213.59;5093056;28;20612;-72
2023/12/28 04:07:08;;;;;;;1.40;1.20;;;;;;;6.80;68.82;98213.91;5093098;28;20228;-72
2023/12/28 04:09:35;;;;;;;1.33;1.20;;;;;;;7.02;66.38;98229.53;5092883;28;20589;-72
2023/12/28 04:12:01;;;;;;;1.03;0.97;;;;;;;7.02;67.07;98218.16;5093276;28;20208;-72
2023/12/28 04:14:28;;;;;;;1.43;1.20;;;;;;;7.22;66.08;98225.22;5093091;28;20210;-72
2023/12/28 04:16:54;;;;;;;1.47;1.13;;;;;;;7.39;66.78;98218.63;5093076;28;20203;-72
2023/12/28 04:19:20;;;;;;;1.20;1.10;;;;;;;7.72;59.95;98219.59;5092869;28;20220;-72
2023/12/28 04:21:47;;;;;;;1.57;1.20;;;;;;;7.70;61.36;98234.03;5093073;28;20201;-72
2023/12/28 04:24:13;;;;;;;1.43;1.17;;;;;;;7.61;63.06;98221.97;5093053;28;20285;-72
2023/12/28 04:26:38;;;;;;;1.00;1.00;;;;;;;7.71;60.38;98231.19;5093029;28;20200;-72
2023/12/28 04:29:05;;;;;;;2.83;1.10;;;;;;;7.79;59.63;98223.06;5093193;28;20234;-72
2023/12/28 04:31:31;;;;;;;2.53;1.50;;;;;;;7.67;64.10;98215.91;5096618;28;20246;-72
2023/12/28 04:33:58;;;;;;;1.10;1.00;;;;;;;7.75;61.09;98221.03;5096788;28;20213;-72
2023/12/28 04:36:24;;;;;;;1.67;1.40;;;;;;;7.63;63.88;98215.47;5096782;28;20200;-72
2023/12/28 04:38:50;;;;;;;1.50;1.27;;;;;;;7.72;61.03;98216.94;5096376;28;20200;-72
2023/12/28 04:41:17;;;;;;;1.23;1.10;;;;;;;7.53;65.88;98214.19;5096172;28;20208;-72
2023/12/28 04:43:43;;;;;;;1.63;1.13;;;;;;;7.45;67.59;98211.72;5096307;28;20212;-72
2023/12/28 04:46:09;;;;;;;2.07;1.37;;;;;;;7.47;63.82;98215.78;5096220;28;20575;-73
2023/12/28 04:48:36;;;;;;;1.20;1.10;;;;;;;7.44;63.35;98207.44;5095959;28;20225;-73
2023/12/28 04:51:06;;;;;;;1.80;1.10;;;;;;;7.31;67.81;98202.06;5096219;28;20237;-72
2023/12/28 04:53:33;;;;;;;1.53;1.30;;;;;;;7.29;65.20;98206.75;5096485;28;20208;-72
2023/12/28 04:56:00;;;;;;;1.77;1.27;;;;;;;7.26;63.67;98199.19;5096336;28;20234;-72
2023/12/28 04:58:26;;;;;;;2.87;1.37;;;;;;;7.12;69.78;98192.19;5096317;28;20196;-72
2023/12/28 05:00:52;;;;;;;1.87;1.20;;;;;;;7.00;71.67;98194.56;5095725;28;20234;-72
2023/12/28 05:03:19;;;;;;;1.40;1.03;;;;;;;6.90;72.52;98202.00;5095681;28;20204;-72
2023/12/28 05:05:45;;;;;;;1.83;1.23;;;;;;;7.06;68.53;98201.72;5095592;28;20314;-72
2023/12/28 05:08:11;;;;;;;1.77;1.20;;;;;;;7.09;66.95;98203.16;5095446;28;20216;-72
2023/12/28 05:10:38;;;;;;;1.67;1.07;;;;;;;7.06;67.20;98201.72;5095852;28;20219;-72
2023/12/28 05:13:04;;;;;;;2.43;1.33;;;;;;;7.27;67.16;98209.59;5095952;28;20204;-72
2023/12/28 05:15:30;;;;;;;2.10;1.20;;;;;;;7.36;66.14;98200.47;5096017;28;20208;-72
2023/12/28 05:17:57;;;;;;;2.10;1.33;;;;;;;7.30;67.59;98201.28;5095539;28;20666;-72
2023/12/28 05:20:23;;;;;;;1.70;1.20;;;;;;;7.32;68.94;98203.69;5095278;28;20224;-72
2023/12/28 05:22:49;;;;;;;2.13;1.43;;;;;;;7.37;68.39;98206.59;5095173;28;20209;-72
2023/12/28 05:25:16;;;;;;;1.37;1.10;;;;;;;7.56;66.82;98209.31;5095181;28;20208;-72
2023/12/28 05:27:42;;;;;;;1.50;1.33;;;;;;;7.94;63.21;98209.69;5095185;28;20227;-72
2023/12/28 05:30:09;;;;;;;1.40;1.30;;;;;;;8.43;60.10;98207.63;5095172;28;20229;-72
2023/12/28 05:32:36;;;;;;;1.13;1.00;;;;;;;8.13;62.67;98209.75;5095630;28;20563;-72
2023/12/28 05:35:03;;;;;;;2.30;1.20;;;;;;;8.08;64.03;98214.84;5095394;28;20671;-72
2023/12/28 05:37:29;;;;;;;1.17;1.07;;;;;;;8.15;63.68;98228.91;5095269;28;20236;-72
2023/12/28 05:39:57;;;;;;;2.53;1.20;;;;;;;8.22;62.81;98239.56;5095140;28;20224;-72
2023/12/28 05:42:23;;;;;;;1.13;1.00;;;;;;;8.66;60.78;98245.16;5095235;28;20233;-72
2023/12/28 05:44:50;;;;;;;1.50;1.20;;;;;;;8.73;61.27;98238.03;5094717;28;20209;-72
2023/12/28 05:47:16;;;;;;;1.30;1.00;;;;;;;8.67;61.81;98241.47;5094753;28;20216;-72
2023/12/28 05:49:42;;;;;;;1.60;1.10;;;;;;;8.71;62.93;98235.59;5095041;28;20228;-72
2023/12/28 05:52:09;;;;;;;1.10;1.00;;;;;;;8.87;61.16;98250.28;5095158;28;20226;-72
2023/12/28 05:54:35;;;;;;;2.17;1.40;;;;;;;8.78;62.91;98251.50;5095195;28;20290;-73
2023/12/28 05:57:01;;;;;;;1.73;1.10;;;;;;;8.77;62.62;98242.72;5095021;28;20210;-73
2023/12/28 05:59:28;;;;;;;1.97;1.20;;;;;;;8.73;63.16;98248.66;5094875;28;20216;-73
2023/12/28 06:01:54;;;;;;;1.10;1.00;;;;;;;8.92;62.05;98253.13;5094990;28;20214;-73
2023/12/28 06:04:20;;;;;;;1.27;1.10;;;;;;;8.90;63.25;98249.84;5094747;28;20204;-73
2023/12/28 06:06:47;;;;;;;1.20;1.10;;;;;;;8.94;62.86;98253.72;5094503;28;20207;-72
2023/12/28 06:09:13;;;;;;;1.53;1.00;;;;;;;9.06;61.97;98257.41;5094328;28;20242;-72
2023/12/28 06:11:40;;;;;;;1.20;1.10;;;;;;;9.06;62.24;98260.88;5093983;28;20207;-72
2023/12/28 06:14:10;;;;;;;1.47;1.10;;;;;;;8.88;63.85;98259.84;5094004;28;20203;-72
2023/12/28 06:16:37;;;;;;;1.17;1.00;;;;;;;8.92;63.83;98263.75;5094408;28;20253;-72
2023/12/28 06:19:03;;;;;;;1.93;1.07;;;;;;;8.80;64.47;98275.97;5094343;28;20255;-72
2023/12/28 06:21:30;;;;;;;1.67;1.20;;;;;;;8.99;64.40;98269.84;5094385;28;20206;-72
2023/12/28 06:23:59;;;;;;;2.17;1.00;;;;;;;9.13;62.82;98274.13;5093909;28;20298;-72
2023/12/28 06:26:25;;;;;;;1.13;1.03;;;;;;;9.10;64.19;98267.41;5093889;28;20208;-72
2023/12/28 06:28:51;;;;;;;1.90;1.20;;;;;;;9.22;64.00;98278.22;5093798;28;20694;-73
2023/12/28 06:31:18;;;;;;;1.23;0.90;;;;;;;9.14;65.50;98273.94;5094190;28;20230;-73
2023/12/28 06:33:44;;;;;;;2.10;1.07;;;;;;;8.98;67.74;98270.88;5094241;28;20208;-72
2023/12/28 06:36:12;;;;;;;1.80;1.20;;;;;;;8.94;67.64;98256.38;5093792;28;20208;-72
2023/12/28 06:38:38;;;;;;;1.90;1.10;;;;;;;9.14;65.63;98257.22;5094129;28;20206;-72
2023/12/28 06:41:12;;;;;;;1.40;1.20;;;;;;;9.18;65.16;98253.94;5094068;28;20219;-73
2023/12/28 06:43:38;;;;;;;1.67;1.33;;;;;;;9.14;65.28;98260.66;5094118;28;20210;-73
2023/12/28 06:46:04;;;;;;;1.30;1.10;;;;;;;9.22;65.51;98268.44;5093996;28;20207;-73
2023/12/28 06:48:31;;;;;;;3.00;1.13;;;;;;;9.27;65.39;98273.09;5093566;28;20694;-72
2023/12/28 06:50:58;;;;;;;1.40;0.90;;;;;;;9.31;64.70;98284.94;5093855;28;20244;-73
2023/12/28 06:53:25;;;;;;;2.13;1.30;;;;;;;9.45;63.87;98281.25;5093419;28;20204;-72
2023/12/28 06:55:51;;;;;;;2.60;1.30;;;;;;;9.32;66.25;98284.75;5093810;28;20210;-72
2023/12/28 06:58:17;;;;;;;2.23;1.37;;;;;;;9.24;65.89;98290.25;5093341;28;20231;-72
2023/12/28 07:00:44;;;;;;;1.77;1.20;;;;;;;9.28;67.78;98277.41;5093812;28;20542;-72
2023/12/28 07:03:11;;;;;;;1.20;1.07;;;;;;;9.21;66.75;98273.94;5093792;28;20257;-72
2023/12/28 07:05:37;;;;;;;2.23;1.40;;;;;;;9.19;66.28;98276.78;5093958;28;20255;-72
2023/12/28 07:08:04;;;;;;;1.93;1.20;;;;;;;9.17;67.24;98288.63;5093530;28;20228;-72
2023/12/28 07:10:30;;;;;;;1.10;1.00;;;;;;;9.30;66.99;98294.75;5093659;28;20314;-72
2023/12/28 07:12:56;;;;;;;1.87;1.17;;;;;;;9.21;68.08;98295.97;5093514;28;20207;-72
2023/12/28 07:15:23;;;;;;;1.70;1.10;;;;;;;9.20;69.47;98299.66;5093349;28;20208;-72
2023/12/28 07:17:49;;;;;;;2.80;1.20;;;;;;;9.11;69.31;98302.72;5093428;28;20211;-72
2023/12/28 07:20:16;;;;;;;1.20;1.10;;;;;;;9.03;71.98;98287.00;5093360;28;20224;-72
2023/12/28 07:22:42;;;;;;;2.23;1.10;;;;;;;9.07;71.41;98298.81;5093233;28;20216;-72
2023/12/28 07:25:09;;;;;;;1.37;1.07;;;;;;;9.01;72.14;98302.31;5093127;28;20690;-73
2023/12/28 07:27:36;;;;;;;1.70;1.00;;;;;;;8.97;72.36;98303.72;5093203;28;20204;-73
2023/12/28 07:30:03;;;;;;;1.97;1.00;;;;;;;8.98;72.26;98300.03;5092843;28;20664;-73
2023/12/28 07:32:30;;;;;;;2.27;1.07;;;;;;;8.92;73.42;98312.25;5093610;28;20200;-73
2023/12/28 07:34:58;;;;;;;2.43;1.10;;;;;;;8.81;80.64;98309.38;5093586;28;20207;-73
2023/12/28 07:37:25;;;;;;;2.33;1.30;;;;;;;8.76;80.19;98322.44;5093448;28;20236;-73
2023/12/28 07:39:53;;;;;;;3.43;1.63;;;;;;;8.71;79.15;98309.81;5093678;28;20307;-73
2023/12/28 07:42:21;;;;;;;3.33;1.90;;;;;;;8.61;81.33;98319.16;5093008;28;20203;-73
2023/12/28 07:44:48;;;;;;;1.93;1.63;;;;;;;8.64;79.90;98314.25;5092851;28;20242;-73
2023/12/28 07:47:16;;;;;;;3.57;1.77;;;;;;;8.55;79.57;98317.31;5093026;28;20203;-73
2023/12/28 07:49:43;;;;;;;3.50;1.90;;;;;;;8.60;79.02;98333.41;5092505;28;20231;-73
2023/12/28 07:52:09;;;;;;;3.20;2.00;;;;;;;8.68;77.28;98331.41;5092736;28;20205;-73
2023/12/28 07:54:35;;;;;;;4.57;2.47;;;;;;;8.64;82.38;98334.66;5093230;28;20214;-73
2023/12/28 07:57:02;;;;;;;4.20;2.37;;;;;;;8.58;80.23;98327.50;5093153;28;20200;-73
2023/12/28 07:59:28;;;;;;;5.00;2.10;;;;;;;8.94;74.88;98331.47;5092846;28;20222;-73
2023/12/28 08:01:58;;;;;;;4.40;2.30;;;;;;;8.88;76.69;98334.91;5092880;28;20640;-73
2023/12/28 08:04:27;;;;;;;3.00;2.03;;;;;;;8.76;80.99;98336.53;5094689;28;20298;-73
2023/12/28 08:06:53;;;;;;;2.80;1.60;;;;;;;8.75;78.66;98332.25;5097012;28;20204;-73
2023/12/28 08:09:20;;;;;;;3.07;1.80;;;;;;;8.73;80.04;98339.56;5096800;28;20577;-73
2023/12/28 08:11:46;;;;;;;3.47;2.00;;;;;;;8.67;81.40;98329.78;5096573;28;20203;-73
2023/12/28 08:14:13;;;;;;;2.17;1.90;;;;;;;8.73;79.37;98321.00;5096794;28;20204;-73
2023/12/28 08:16:41;;;;;;;1.70;1.60;;;;;;;8.65;82.60;98333.63;5096766;28;20206;-73
2023/12/28 08:19:08;;;;;;;2.50;1.90;;;;;;;8.72;79.82;98335.28;5096073;28;20250;-73
2023/12/28 08:21:35;;;;;;;4.90;2.30;;;;;;;8.71;82.55;98331.00;5096607;28;20573;-73
2023/12/28 08:24:04;;;;;;;4.87;2.70;;;;;;;8.66;84.63;98332.63;5096587;28;20239;-73
2023/12/28 08:26:32;;;;;;;3.47;2.00;;;;;;;8.59;85.05;98340.53;5096297;28;20203;-73
2023/12/28 08:28:59;;;;;;;3.40;1.80;;;;;;;8.64;84.53;98346.06;5096166;28;20223;-73
2023/12/28 08:31:27;;;;;;;5.13;1.90;;;;;;;8.67;85.93;98339.53;5096561;28;20208;-73
2023/12/28 08:33:53;;;;;;;5.10;1.93;;;;;;;8.55;90.05;98333.22;5096119;28;20681;-73
2023/12/28 08:36:24;;;;;;;3.40;2.10;;;;;;;8.50;92.55;98341.72;5096339;28;20214;-73
2023/12/28 08:38:50;;;;;;;3.13;2.10;;;;;;;8.55;91.35;98339.31;5095950;28;20196;-73
2023/12/28 08:41:23;;;;;;;4.23;2.13;;;;;;;8.53;93.00;98343.16;5096083;28;20686;-73
2023/12/28 08:43:50;;;;;;;5.80;2.43;;;;;;;8.48;93.38;98335.00;5096497;28;20196;-73
2023/12/28 08:46:17;;;;;;;4.13;2.47;;;;;;;8.50;90.95;98344.38;5095999;28;20530;-73
2023/12/28 08:48:44;;;;;;;6.03;2.70;;;;;;;8.49;86.13;98344.56;5095403;28;20633;-73
2023/12/28 08:51:11;;;;;;;4.43;2.73;;;;;;;8.41;88.18;98339.47;5095936;28;20207;-73
2023/12/28 08:53:38;;;;;;;4.07;2.40;;;;;;;8.41;86.30;98348.22;5096099;28;20204;-73
2023/12/28 08:56:19;;;;;;;3.70;2.57;;;;;;;8.46;85.83;98342.34;5096005;28;20215;-73
2023/12/28 08:58:47;;;;;;;4.50;2.50;;;;;;;8.48;87.56;98351.72;5095415;28;20222;-73
2023/12/28 09:01:21;;;;;;;3.40;2.40;;;;;;;8.52;90.99;98346.84;5095683;28;20208;-73
2023/12/28 09:03:49;;;;;;;3.00;2.30;;;;;;;8.51;94.47;98321.38;5095938;28;20219;-73
2023/12/28 09:06:16;;;;;;;4.20;2.40;;;;;;;8.56;92.13;98332.97;5095883;28;20206;-73
2023/12/28 09:08:45;;;;;;;4.63;2.60;;;;;;;8.55;95.86;98330.56;5095754;28;20246;-73
2023/12/28 09:11:14;;;;;;;4.27;2.80;;;;;;;8.55;98.80;98334.00;5095441;28;20211;-73
2023/12/28 09:13:41;;;;;;;3.10;2.77;;;;;;;8.48;100.00;98337.66;5095555;28;20641;-73
2023/12/28 09:16:12;;;;;;;4.13;2.70;;;;;;;8.46;100.00;98332.53;5094517;28;20663;-73
2023/12/28 09:18:39;;;;;;;3.60;2.40;;;;;;;8.44;100.00;98333.75;5095892;28;20180;-73
2023/12/28 09:21:07;;;;;;;4.50;2.60;;;;;;;8.41;100.00;98332.34;5095435;28;20283;-73
2023/12/28 09:23:34;;;;;;;4.50;2.70;;;;;;;8.39;100.00;98336.19;5095496;28;20212;-73
2023/12/28 09:26:03;;;;;;;6.77;2.90;;;;;;;8.39;100.00;98346.78;5095735;28;20210;-73
2023/12/28 09:28:30;;;;;;;3.70;2.50;;;;;;;8.46;100.00;98347.66;5095160;28;20219;-73
2023/12/28 09:30:57;;;;;;;4.37;2.80;;;;;;;8.52;100.00;98341.53;5095105;28;20219;-73
2023/12/28 09:33:24;;;;;;;5.87;2.63;;;;;;;8.61;100.00;98343.81;5096120;28;20291;-73
2023/12/28 09:35:51;;;;;;;5.37;2.73;;;;;;;8.70;100.00;98341.81;5094634;28;20207;-73
2023/12/28 09:38:18;;;;;;;5.27;2.67;;;;;;;8.81;100.00;98349.16;5094740;28;20215;-74
2023/12/28 09:40:45;;;;;;;4.80;3.17;;;;;;;8.90;100.00;98345.31;5094958;28;20322;-74
2023/12/28 09:43:26;;;;;;;4.43;2.67;;;;;;;9.06;100.00;98350.25;5095179;28;20344;-74
2023/12/28 09:45:55;;;;;;;2.87;2.33;;;;;;;9.09;98.40;98360.44;5095396;28;20632;-74
2023/12/28 09:48:23;;;;;;;5.00;3.13;;;;;;;9.20;98.33;98367.81;5094736;28;20714;-74
2023/12/28 09:50:54;;;;;;;6.13;2.57;;;;;;;9.19;100.00;98363.53;5095337;28;20232;-74
2023/12/28 09:53:27;;;;;;;2.70;1.90;;;;;;;9.40;100.00;98360.66;5095206;28;20199;-74
2023/12/28 09:55:53;;;;;;;3.43;1.90;;;;;;;9.64;100.00;98360.06;5095153;28;20360;-74
2023/12/28 09:58:24;;;;;;;4.23;1.67;;;;;;;9.82;100.00;98362.91;5094669;28;20212;-74
2023/12/28 10:00:52;;;;;;;3.97;1.73;;;;;;;9.84;100.00;98352.88;5094412;28;20220;-74
2023/12/28 10:03:19;;;;;;;1.70;1.13;;;;;;;9.92;100.00;98355.31;5094884;28;20575;-74
2023/12/28 10:05:46;;;;;;;3.13;1.50;;;;;;;10.02;100.00;98358.34;5094965;28;20281;-74
2023/12/28 10:08:15;;;;;;;3.33;1.30;;;;;;;10.24;100.00;98365.06;5094831;28;20295;-74
2023/12/28 10:10:42;;;;;;;1.77;1.30;;;;;;;10.34;97.73;98365.44;5093987;28;20239;-74
2023/12/28 10:13:11;;;;;;;2.23;1.40;;;;;;;10.55;95.70;98359.84;5094676;28;20204;-74
2023/12/28 10:15:39;;;;;;;2.53;1.20;;;;;;;10.45;95.94;98354.97;5094470;28;20242;-74
2023/12/28 10:18:06;;;;;;;1.40;1.20;;;;;;;10.49;95.01;98361.50;5094470;28;20259;-74
2023/12/28 10:20:33;;;;;;;3.30;1.20;;;;;;;10.58;94.01;98364.72;5093928;28;20614;-74
2023/12/28 10:23:02;;;;;;;2.27;1.20;;;;;;;10.74;91.84;98366.91;5094101;28;20261;-74
2023/12/28 10:25:29;;;;;;;2.40;1.10;;;;;;;10.69;92.15;98359.56;5094025;28;20664;-74
2023/12/28 10:27:59;;;;;;;1.53;1.10;;;;;;;10.72;91.44;98368.97;5093187;28;20213;-74
2023/12/28 10:30:25;;;;;;;1.53;1.03;;;;;;;10.64;93.37;98359.38;5093547;28;20699;-74
2023/12/28 10:32:52;;;;;;;1.27;1.10;;;;;;;10.70;91.65;98352.41;5095139;28;20204;-74
2023/12/28 10:35:18;;;;;;;1.17;0.90;;;;;;;10.76;92.42;98347.06;5093991;28;20667;-74
2023/12/28 10:37:46;;;;;;;2.03;1.10;;;;;;;10.66;93.45;98344.06;5093780;28;20207;-74
2023/12/28 10:40:15;;;;;;;1.30;1.00;;;;;;;10.80;92.13;98339.47;5093708;28;20217;-74
2023/12/28 10:42:51;;;;;;;1.57;1.10;;;;;;;10.78;91.48;98352.16;5094223;28;20298;-74
2023/12/28 10:45:21;;;;;;;1.43;1.00;;;;;;;10.79;91.91;98351.97;5093825;28;20192;-74
2023/12/28 10:48:12;;;;;;;1.40;1.20;;;;;;;10.76;93.04;98346.22;5093719;28;20212;-74
2023/12/28 10:50:41;;;;;;;1.50;1.17;;;;;;;10.79;92.31;98346.66;5093463;28;20287;-74
2023/12/28 10:53:28;;;;;;;1.47;1.00;;;;;;;10.81;92.13;98349.06;5093695;28;20548;-74
2023/12/28 10:56:12;;;;;;;2.30;1.10;;;;;;;10.90;93.46;98337.97;5093885;28;20190;-74
2023/12/28 10:58:50;;;;;;;3.77;2.87;;;;;;;10.93;91.78;98341.25;5093328;28;20632;-74
2023/12/28 11:01:25;;;;;;;1.60;1.10;;;;;;;11.08;90.22;98329.25;5093656;28;20199;-74
2023/12/28 11:04:44;;;;;;;1.90;1.20;;;;;;;10.95;92.59;98326.72;5093620;28;20185;-74
2023/12/28 11:07:14;;;;;;;2.03;1.10;;;;;;;11.02;90.31;98325.63;5092738;28;20202;-74
2023/12/28 11:09:43;;;;;;;2.70;1.40;;;;;;;11.05;89.95;98337.69;5093421;28;20697;-74
2023/12/28 11:12:13;;;;;;;1.60;1.30;;;;;;;10.96;93.08;98323.00;5092976;28;20210;-74
2023/12/28 11:14:43;;;;;;;2.07;1.20;;;;;;;11.07;92.45;98325.81;5093234;28;20210;-74
2023/12/28 11:17:14;;;;;;;1.33;1.10;;;;;;;10.93;95.31;98329.59;5093255;28;20229;-74
2023/12/28 11:19:44;;;;;;;1.63;1.00;;;;;;;10.91;94.64;98313.00;5093113;28;20293;-74
2023/12/28 11:22:10;;;;;;;2.10;1.00;;;;;;;10.91;96.93;98318.31;5093269;28;20216;-74
2023/12/28 11:24:37;;;;;;;1.20;1.10;;;;;;;11.01;96.09;98312.53;5093427;28;20206;-74
2023/12/28 11:27:04;;;;;;;0.93;0.93;;;;;;;11.06;96.57;98323.34;5093181;28;20205;-74
2023/12/28 11:29:32;;;;;;;0.80;0.80;;;;;;;11.09;97.16;98306.97;5092913;28;20603;-74
2023/12/28 11:32:00;;;;;;;0.90;0.90;;;;;;;11.13;97.78;98302.00;5093444;28;20283;-74
2023/12/28 11:34:30;;;;;;;1.73;0.87;;;;;;;10.95;100.00;98298.25;5093427;28;20256;-74
2023/12/28 11:37:00;;;;;;;1.23;1.00;;;;;;;10.92;100.00;98297.88;5093199;28;20321;-74
2023/12/28 11:39:36;;;;;;;1.97;0.90;;;;;;;10.95;100.00;98292.94;5095534;28;20230;-74
2023/12/28 11:42:06;;;;;;;1.10;1.00;;;;;;;10.98;100.00;98289.03;5097182;28;20209;-74